sensor_id;sensor_type;location;lat;lon;timestamp;P1;durP1;ratioP1;P2;durP2;ratioP2
54408;SDS011;40315;48.620;9.828;2022-10-31T00:00:41;5.78;;;4.03;;
54408;SDS011;40315;48.620;9.828;2022-10-31T00:03:08;5.30;;;3.75;;
54408;SDS011;40315;48.620;9.828;2022-10-31T00:05:35;7.53;;;4.30;;
54408;SDS011;40315;48.620;9.828;2022-10-31T00:08:07;6.90;;;3.78;;
54408;SDS011;40315;48.620;9.828;2022-10-31T00:10:36;7.45;;;4.07;;
54408;SDS011;40315;48.620;9.828;2022-10-31T00:13:04;7.35;;;4.13;;
54408;SDS011;40315;48.620;9.828;2022-10-31T00:15:32;6.32;;;3.67;;
54408;SDS011;40315;48.620;9.828;2022-10-31T00:17:59;6.38;;;4.13;;
54408;SDS011;40315;48.620;9.828;2022-10-31T00:20:26;7.43;;;3.75;;
54408;SDS011;40315;48.620;9.828;2022-10-31T00:22:53;6.78;;;3.63;;
54408;SDS011;40315;48.620;9.828;2022-10-31T00:25:25;8.80;;;3.97;;
54408;SDS011;40315;48.620;9.828;2022-10-31T00:27:52;6.47;;;3.50;;
54408;SDS011;40315;48.620;9.828;2022-10-31T00:30:20;7.85;;;3.92;;
54408;SDS011;40315;48.620;9.828;2022-10-31T00:32:47;7.45;;;3.72;;
54408;SDS011;40315;48.620;9.828;2022-10-31T00:35:15;7.93;;;3.80;;
54408;SDS011;40315;48.620;9.828;2022-10-31T00:37:43;7.95;;;3.40;;
54408;SDS011;40315;48.620;9.828;2022-10-31T00:40:11;7.00;;;3.50;;
54408;SDS011;40315;48.620;9.828;2022-10-31T00:42:39;6.72;;;3.95;;
54408;SDS011;40315;48.620;9.828;2022-10-31T00:45:08;4.65;;;2.90;;
54408;SDS011;40315;48.620;9.828;2022-10-31T00:47:35;4.75;;;2.92;;
54408;SDS011;40315;48.620;9.828;2022-10-31T00:50:03;5.03;;;3.10;;
54408;SDS011;40315;48.620;9.828;2022-10-31T00:52:31;10.68;;;3.05;;
54408;SDS011;40315;48.620;9.828;2022-10-31T00:54:58;4.53;;;3.08;;
54408;SDS011;40315;48.620;9.828;2022-10-31T00:57:25;7.18;;;3.60;;
54408;SDS011;40315;48.620;9.828;2022-10-31T00:59:54;5.57;;;3.05;;
54408;SDS011;40315;48.620;9.828;2022-10-31T01:02:21;5.32;;;3.22;;
54408;SDS011;40315;48.620;9.828;2022-10-31T01:04:48;6.78;;;3.25;;
54408;SDS011;40315;48.620;9.828;2022-10-31T01:07:15;6.90;;;3.22;;
54408;SDS011;40315;48.620;9.828;2022-10-31T01:09:44;5.50;;;2.80;;
54408;SDS011;40315;48.620;9.828;2022-10-31T01:12:11;6.22;;;2.97;;
54408;SDS011;40315;48.620;9.828;2022-10-31T01:14:42;6.00;;;2.72;;
54408;SDS011;40315;48.620;9.828;2022-10-31T01:17:11;5.40;;;3.05;;
54408;SDS011;40315;48.620;9.828;2022-10-31T01:19:39;8.10;;;3.13;;
54408;SDS011;40315;48.620;9.828;2022-10-31T01:22:06;7.25;;;2.78;;
54408;SDS011;40315;48.620;9.828;2022-10-31T01:24:33;9.15;;;3.05;;
54408;SDS011;40315;48.620;9.828;2022-10-31T01:27:01;6.05;;;3.13;;
54408;SDS011;40315;48.620;9.828;2022-10-31T01:29:32;4.57;;;2.70;;
54408;SDS011;40315;48.620;9.828;2022-10-31T01:31:59;6.43;;;3.10;;
54408;SDS011;40315;48.620;9.828;2022-10-31T01:34:27;7.22;;;3.28;;
54408;SDS011;40315;48.620;9.828;2022-10-31T01:36:54;7.28;;;3.03;;
54408;SDS011;40315;48.620;9.828;2022-10-31T01:39:21;5.85;;;2.90;;
54408;SDS011;40315;48.620;9.828;2022-10-31T01:48:27;6.40;;;2.88;;
54408;SDS011;40315;48.620;9.828;2022-10-31T01:50:57;8.13;;;3.17;;
54408;SDS011;40315;48.620;9.828;2022-10-31T01:53:25;4.72;;;3.33;;
54408;SDS011;40315;48.620;9.828;2022-10-31T01:55:54;6.85;;;2.80;;
54408;SDS011;40315;48.620;9.828;2022-10-31T01:58:24;5.68;;;2.67;;
54408;SDS011;40315;48.620;9.828;2022-10-31T02:00:54;4.97;;;2.65;;
54408;SDS011;40315;48.620;9.828;2022-10-31T02:03:26;8.05;;;2.90;;
54408;SDS011;40315;48.620;9.828;2022-10-31T02:05:55;4.38;;;2.40;;
54408;SDS011;40315;48.620;9.828;2022-10-31T02:08:27;6.25;;;2.15;;
54408;SDS011;40315;48.620;9.828;2022-10-31T02:10:56;5.20;;;2.55;;
54408;SDS011;40315;48.620;9.828;2022-10-31T02:13:24;6.13;;;2.90;;
54408;SDS011;40315;48.620;9.828;2022-10-31T02:15:52;7.13;;;2.80;;
54408;SDS011;40315;48.620;9.828;2022-10-31T02:18:20;8.07;;;3.17;;
54408;SDS011;40315;48.620;9.828;2022-10-31T02:20:53;4.85;;;2.85;;
54408;SDS011;40315;48.620;9.828;2022-10-31T02:23:39;9.00;;;2.60;;
54408;SDS011;40315;48.620;9.828;2022-10-31T02:26:26;5.70;;;2.63;;
54408;SDS011;40315;48.620;9.828;2022-10-31T02:29:23;6.32;;;2.70;;
54408;SDS011;40315;48.620;9.828;2022-10-31T02:32:20;6.35;;;3.00;;
54408;SDS011;40315;48.620;9.828;2022-10-31T02:34:56;5.80;;;2.28;;
54408;SDS011;40315;48.620;9.828;2022-10-31T02:37:27;5.93;;;2.60;;
54408;SDS011;40315;48.620;9.828;2022-10-31T02:40:04;6.47;;;2.70;;
54408;SDS011;40315;48.620;9.828;2022-10-31T02:42:58;5.60;;;2.65;;
54408;SDS011;40315;48.620;9.828;2022-10-31T02:45:30;6.40;;;2.88;;
54408;SDS011;40315;48.620;9.828;2022-10-31T02:48:08;5.10;;;2.67;;
54408;SDS011;40315;48.620;9.828;2022-10-31T02:50:41;4.85;;;3.00;;
54408;SDS011;40315;48.620;9.828;2022-10-31T02:53:09;4.88;;;3.35;;
54408;SDS011;40315;48.620;9.828;2022-10-31T02:55:48;6.28;;;2.30;;
54408;SDS011;40315;48.620;9.828;2022-10-31T02:58:21;7.03;;;2.92;;
54408;SDS011;40315;48.620;9.828;2022-10-31T03:04:27;6.38;;;2.50;;
54408;SDS011;40315;48.620;9.828;2022-10-31T03:07:20;6.22;;;2.75;;
54408;SDS011;40315;48.620;9.828;2022-10-31T03:09:55;8.73;;;2.60;;
54408;SDS011;40315;48.620;9.828;2022-10-31T03:12:33;6.85;;;2.85;;
54408;SDS011;40315;48.620;9.828;2022-10-31T03:15:09;5.95;;;3.13;;
54408;SDS011;40315;48.620;9.828;2022-10-31T03:17:44;6.63;;;2.58;;
54408;SDS011;40315;48.620;9.828;2022-10-31T03:20:21;4.82;;;2.70;;
54408;SDS011;40315;48.620;9.828;2022-10-31T03:22:55;7.75;;;2.53;;
54408;SDS011;40315;48.620;9.828;2022-10-31T03:25:23;5.13;;;2.80;;
54408;SDS011;40315;48.620;9.828;2022-10-31T03:27:54;6.07;;;2.75;;
54408;SDS011;40315;48.620;9.828;2022-10-31T03:30:27;9.30;;;3.28;;
54408;SDS011;40315;48.620;9.828;2022-10-31T03:32:56;6.20;;;2.63;;
54408;SDS011;40315;48.620;9.828;2022-10-31T03:35:29;6.10;;;3.10;;
54408;SDS011;40315;48.620;9.828;2022-10-31T03:37:58;7.95;;;2.88;;
54408;SDS011;40315;48.620;9.828;2022-10-31T03:40:28;5.00;;;2.90;;
54408;SDS011;40315;48.620;9.828;2022-10-31T03:43:00;4.97;;;2.90;;
54408;SDS011;40315;48.620;9.828;2022-10-31T03:45:32;8.02;;;3.38;;
54408;SDS011;40315;48.620;9.828;2022-10-31T03:48:08;5.53;;;2.95;;
54408;SDS011;40315;48.620;9.828;2022-10-31T03:50:38;4.65;;;3.05;;
54408;SDS011;40315;48.620;9.828;2022-10-31T03:53:11;4.45;;;2.60;;
54408;SDS011;40315;48.620;9.828;2022-10-31T03:55:45;6.22;;;3.40;;
54408;SDS011;40315;48.620;9.828;2022-10-31T03:58:18;4.65;;;2.97;;
54408;SDS011;40315;48.620;9.828;2022-10-31T04:00:47;4.45;;;2.78;;
54408;SDS011;40315;48.620;9.828;2022-10-31T04:03:20;6.25;;;4.18;;
54408;SDS011;40315;48.620;9.828;2022-10-31T04:05:57;7.95;;;2.83;;
54408;SDS011;40315;48.620;9.828;2022-10-31T04:08:30;6.13;;;3.15;;
54408;SDS011;40315;48.620;9.828;2022-10-31T04:11:00;8.38;;;3.13;;
54408;SDS011;40315;48.620;9.828;2022-10-31T04:13:39;6.55;;;3.35;;
54408;SDS011;40315;48.620;9.828;2022-10-31T04:16:13;4.85;;;2.90;;
54408;SDS011;40315;48.620;9.828;2022-10-31T04:18:40;6.13;;;2.97;;
54408;SDS011;40315;48.620;9.828;2022-10-31T04:21:09;5.93;;;2.60;;
54408;SDS011;40315;48.620;9.828;2022-10-31T04:23:38;4.78;;;3.00;;
54408;SDS011;40315;48.620;9.828;2022-10-31T04:26:16;5.75;;;3.10;;
54408;SDS011;40315;48.620;9.828;2022-10-31T04:28:45;6.32;;;2.97;;
54408;SDS011;40315;48.620;9.828;2022-10-31T04:31:12;9.15;;;3.50;;
54408;SDS011;40315;48.620;9.828;2022-10-31T04:33:42;7.00;;;3.83;;
54408;SDS011;40315;48.620;9.828;2022-10-31T04:36:10;8.57;;;4.30;;
54408;SDS011;40315;48.620;9.828;2022-10-31T04:38:39;7.07;;;4.30;;
54408;SDS011;40315;48.620;9.828;2022-10-31T04:41:15;7.32;;;3.85;;
54408;SDS011;40315;48.620;9.828;2022-10-31T04:43:52;8.00;;;3.72;;
54408;SDS011;40315;48.620;9.828;2022-10-31T04:46:19;10.30;;;4.22;;
54408;SDS011;40315;48.620;9.828;2022-10-31T04:48:46;10.32;;;5.72;;
54408;SDS011;40315;48.620;9.828;2022-10-31T04:51:15;6.75;;;4.80;;
54408;SDS011;40315;48.620;9.828;2022-10-31T04:53:43;7.53;;;4.50;;
54408;SDS011;40315;48.620;9.828;2022-10-31T04:56:28;8.75;;;4.85;;
54408;SDS011;40315;48.620;9.828;2022-10-31T04:58:58;8.90;;;4.53;;
54408;SDS011;40315;48.620;9.828;2022-10-31T05:01:31;9.50;;;3.90;;
54408;SDS011;40315;48.620;9.828;2022-10-31T05:03:59;9.90;;;4.20;;
54408;SDS011;40315;48.620;9.828;2022-10-31T05:06:29;9.32;;;3.78;;
54408;SDS011;40315;48.620;9.828;2022-10-31T05:08:56;7.43;;;3.80;;
54408;SDS011;40315;48.620;9.828;2022-10-31T05:11:23;7.05;;;3.47;;
54408;SDS011;40315;48.620;9.828;2022-10-31T05:13:53;6.03;;;3.50;;
54408;SDS011;40315;48.620;9.828;2022-10-31T05:16:43;7.32;;;3.70;;
54408;SDS011;40315;48.620;9.828;2022-10-31T05:19:48;5.40;;;3.47;;
54408;SDS011;40315;48.620;9.828;2022-10-31T05:22:35;5.32;;;3.00;;
54408;SDS011;40315;48.620;9.828;2022-10-31T05:25:02;6.05;;;3.47;;
54408;SDS011;40315;48.620;9.828;2022-10-31T05:27:32;6.18;;;3.60;;
54408;SDS011;40315;48.620;9.828;2022-10-31T05:30:00;8.18;;;4.05;;
54408;SDS011;40315;48.620;9.828;2022-10-31T05:32:29;5.78;;;3.58;;
54408;SDS011;40315;48.620;9.828;2022-10-31T05:35:23;5.47;;;3.42;;
54408;SDS011;40315;48.620;9.828;2022-10-31T05:38:08;5.78;;;3.30;;
54408;SDS011;40315;48.620;9.828;2022-10-31T05:40:38;8.70;;;4.00;;
54408;SDS011;40315;48.620;9.828;2022-10-31T05:43:07;7.97;;;4.00;;
54408;SDS011;40315;48.620;9.828;2022-10-31T05:45:34;7.32;;;3.42;;
54408;SDS011;40315;48.620;9.828;2022-10-31T05:48:07;10.68;;;4.20;;
54408;SDS011;40315;48.620;9.828;2022-10-31T05:50:40;6.63;;;4.28;;
54408;SDS011;40315;48.620;9.828;2022-10-31T05:53:10;9.05;;;4.40;;
54408;SDS011;40315;48.620;9.828;2022-10-31T05:55:38;6.82;;;3.95;;
54408;SDS011;40315;48.620;9.828;2022-10-31T05:58:16;7.25;;;4.30;;
54408;SDS011;40315;48.620;9.828;2022-10-31T06:00:49;5.25;;;3.80;;
54408;SDS011;40315;48.620;9.828;2022-10-31T06:03:16;9.52;;;4.43;;
54408;SDS011;40315;48.620;9.828;2022-10-31T06:05:49;7.10;;;4.45;;
54408;SDS011;40315;48.620;9.828;2022-10-31T06:08:17;7.80;;;4.40;;
54408;SDS011;40315;48.620;9.828;2022-10-31T06:10:44;6.38;;;4.60;;
54408;SDS011;40315;48.620;9.828;2022-10-31T06:13:15;8.88;;;4.72;;
54408;SDS011;40315;48.620;9.828;2022-10-31T06:15:45;6.18;;;4.22;;
54408;SDS011;40315;48.620;9.828;2022-10-31T06:18:18;6.07;;;3.97;;
54408;SDS011;40315;48.620;9.828;2022-10-31T06:20:48;9.05;;;4.85;;
54408;SDS011;40315;48.620;9.828;2022-10-31T06:23:15;7.72;;;5.05;;
54408;SDS011;40315;48.620;9.828;2022-10-31T06:25:49;8.95;;;5.65;;
54408;SDS011;40315;48.620;9.828;2022-10-31T06:28:16;8.05;;;5.82;;
54408;SDS011;40315;48.620;9.828;2022-10-31T06:30:52;7.43;;;6.22;;
54408;SDS011;40315;48.620;9.828;2022-10-31T06:33:20;9.65;;;5.32;;
54408;SDS011;40315;48.620;9.828;2022-10-31T06:35:59;8.32;;;5.47;;
54408;SDS011;40315;48.620;9.828;2022-10-31T06:38:29;9.13;;;5.18;;
54408;SDS011;40315;48.620;9.828;2022-10-31T06:41:00;12.43;;;5.55;;
54408;SDS011;40315;48.620;9.828;2022-10-31T06:43:36;11.98;;;5.30;;
54408;SDS011;40315;48.620;9.828;2022-10-31T06:46:24;5.18;;;4.28;;
54408;SDS011;40315;48.620;9.828;2022-10-31T06:49:03;8.48;;;4.40;;
54408;SDS011;40315;48.620;9.828;2022-10-31T06:51:50;7.13;;;4.70;;
54408;SDS011;40315;48.620;9.828;2022-10-31T06:54:17;7.90;;;4.05;;
54408;SDS011;40315;48.620;9.828;2022-10-31T06:56:46;8.73;;;4.15;;
54408;SDS011;40315;48.620;9.828;2022-10-31T06:59:14;6.18;;;4.60;;
54408;SDS011;40315;48.620;9.828;2022-10-31T07:02:00;10.82;;;4.28;;
54408;SDS011;40315;48.620;9.828;2022-10-31T07:04:27;7.07;;;4.57;;
54408;SDS011;40315;48.620;9.828;2022-10-31T07:06:55;8.10;;;4.00;;
54408;SDS011;40315;48.620;9.828;2022-10-31T07:09:24;8.73;;;4.18;;
54408;SDS011;40315;48.620;9.828;2022-10-31T07:11:54;8.05;;;4.07;;
54408;SDS011;40315;48.620;9.828;2022-10-31T07:14:21;5.13;;;3.17;;
54408;SDS011;40315;48.620;9.828;2022-10-31T07:16:49;8.23;;;3.88;;
54408;SDS011;40315;48.620;9.828;2022-10-31T07:19:22;7.60;;;3.90;;
54408;SDS011;40315;48.620;9.828;2022-10-31T07:21:49;7.03;;;4.55;;
54408;SDS011;40315;48.620;9.828;2022-10-31T07:24:16;7.93;;;4.63;;
54408;SDS011;40315;48.620;9.828;2022-10-31T07:27:11;8.27;;;5.00;;
54408;SDS011;40315;48.620;9.828;2022-10-31T07:29:41;5.80;;;4.72;;
54408;SDS011;40315;48.620;9.828;2022-10-31T07:32:08;7.43;;;4.85;;
54408;SDS011;40315;48.620;9.828;2022-10-31T07:34:41;12.20;;;5.20;;
54408;SDS011;40315;48.620;9.828;2022-10-31T07:37:16;8.02;;;4.95;;
54408;SDS011;40315;48.620;9.828;2022-10-31T07:39:43;6.93;;;5.43;;
54408;SDS011;40315;48.620;9.828;2022-10-31T07:42:11;9.38;;;5.07;;
54408;SDS011;40315;48.620;9.828;2022-10-31T07:44:42;7.13;;;4.32;;
54408;SDS011;40315;48.620;9.828;2022-10-31T07:47:28;7.50;;;4.70;;
54408;SDS011;40315;48.620;9.828;2022-10-31T07:50:14;7.43;;;4.40;;
54408;SDS011;40315;48.620;9.828;2022-10-31T07:53:01;10.63;;;4.50;;
54408;SDS011;40315;48.620;9.828;2022-10-31T07:55:47;6.28;;;3.85;;
54408;SDS011;40315;48.620;9.828;2022-10-31T07:58:16;6.05;;;3.45;;
54408;SDS011;40315;48.620;9.828;2022-10-31T08:00:44;6.38;;;3.85;;
54408;SDS011;40315;48.620;9.828;2022-10-31T08:03:20;5.28;;;3.65;;
54408;SDS011;40315;48.620;9.828;2022-10-31T08:06:13;9.00;;;4.22;;
54408;SDS011;40315;48.620;9.828;2022-10-31T08:09:02;7.93;;;4.63;;
54408;SDS011;40315;48.620;9.828;2022-10-31T08:11:30;6.47;;;4.28;;
54408;SDS011;40315;48.620;9.828;2022-10-31T08:14:03;7.18;;;4.13;;
54408;SDS011;40315;48.620;9.828;2022-10-31T08:16:30;6.38;;;4.60;;
54408;SDS011;40315;48.620;9.828;2022-10-31T08:19:00;10.23;;;4.60;;
54408;SDS011;40315;48.620;9.828;2022-10-31T08:21:29;6.82;;;4.00;;
54408;SDS011;40315;48.620;9.828;2022-10-31T08:23:57;6.20;;;3.78;;
54408;SDS011;40315;48.620;9.828;2022-10-31T08:26:24;7.75;;;4.32;;
54408;SDS011;40315;48.620;9.828;2022-10-31T08:28:54;8.45;;;4.97;;
54408;SDS011;40315;48.620;9.828;2022-10-31T08:31:25;10.05;;;5.03;;
54408;SDS011;40315;48.620;9.828;2022-10-31T08:34:12;8.73;;;4.68;;
54408;SDS011;40315;48.620;9.828;2022-10-31T08:36:58;9.10;;;5.30;;
54408;SDS011;40315;48.620;9.828;2022-10-31T08:39:32;7.57;;;5.18;;
54408;SDS011;40315;48.620;9.828;2022-10-31T08:41:59;11.10;;;5.18;;
54408;SDS011;40315;48.620;9.828;2022-10-31T08:44:27;8.77;;;4.97;;
54408;SDS011;40315;48.620;9.828;2022-10-31T08:46:55;9.68;;;5.70;;
54408;SDS011;40315;48.620;9.828;2022-10-31T08:49:25;10.88;;;5.70;;
54408;SDS011;40315;48.620;9.828;2022-10-31T08:51:54;9.70;;;5.55;;
54408;SDS011;40315;48.620;9.828;2022-10-31T08:54:21;10.50;;;5.20;;
54408;SDS011;40315;48.620;9.828;2022-10-31T08:56:48;10.13;;;5.55;;
54408;SDS011;40315;48.620;9.828;2022-10-31T08:59:31;8.98;;;5.20;;
54408;SDS011;40315;48.620;9.828;2022-10-31T09:02:22;13.43;;;6.18;;
54408;SDS011;40315;48.620;9.828;2022-10-31T09:04:54;10.23;;;5.35;;
54408;SDS011;40315;48.620;9.828;2022-10-31T09:07:21;10.20;;;6.65;;
54408;SDS011;40315;48.620;9.828;2022-10-31T09:09:48;11.00;;;6.68;;
54408;SDS011;40315;48.620;9.828;2022-10-31T09:12:17;10.38;;;6.75;;
54408;SDS011;40315;48.620;9.828;2022-10-31T09:15:03;15.25;;;7.40;;
54408;SDS011;40315;48.620;9.828;2022-10-31T09:17:47;8.82;;;6.22;;
54408;SDS011;40315;48.620;9.828;2022-10-31T09:20:26;9.48;;;6.90;;
54408;SDS011;40315;48.620;9.828;2022-10-31T09:22:57;14.07;;;7.20;;
54408;SDS011;40315;48.620;9.828;2022-10-31T09:25:27;14.43;;;7.20;;
54408;SDS011;40315;48.620;9.828;2022-10-31T09:28:19;16.42;;;7.43;;
54408;SDS011;40315;48.620;9.828;2022-10-31T09:30:47;12.15;;;6.65;;
54408;SDS011;40315;48.620;9.828;2022-10-31T09:33:25;15.30;;;6.97;;
54408;SDS011;40315;48.620;9.828;2022-10-31T09:36:12;11.50;;;6.97;;
54408;SDS011;40315;48.620;9.828;2022-10-31T09:38:41;13.00;;;7.55;;
54408;SDS011;40315;48.620;9.828;2022-10-31T09:41:13;14.82;;;7.82;;
54408;SDS011;40315;48.620;9.828;2022-10-31T09:43:52;12.20;;;7.70;;
54408;SDS011;40315;48.620;9.828;2022-10-31T09:46:29;12.38;;;7.60;;
54408;SDS011;40315;48.620;9.828;2022-10-31T09:49:17;12.43;;;7.72;;
54408;SDS011;40315;48.620;9.828;2022-10-31T09:52:00;12.95;;;7.90;;
54408;SDS011;40315;48.620;9.828;2022-10-31T09:54:32;11.27;;;7.35;;
54408;SDS011;40315;48.620;9.828;2022-10-31T09:57:04;14.45;;;7.32;;
54408;SDS011;40315;48.620;9.828;2022-10-31T09:59:35;24.48;;;8.77;;
54408;SDS011;40315;48.620;9.828;2022-10-31T10:02:06;13.18;;;7.60;;
54408;SDS011;40315;48.620;9.828;2022-10-31T10:04:44;13.90;;;7.63;;
54408;SDS011;40315;48.620;9.828;2022-10-31T10:07:22;13.90;;;7.65;;
54408;SDS011;40315;48.620;9.828;2022-10-31T10:10:15;14.05;;;8.23;;
54408;SDS011;40315;48.620;9.828;2022-10-31T10:12:55;14.82;;;8.25;;
54408;SDS011;40315;48.620;9.828;2022-10-31T10:15:53;12.23;;;8.65;;
54408;SDS011;40315;48.620;9.828;2022-10-31T10:18:41;15.40;;;8.38;;
54408;SDS011;40315;48.620;9.828;2022-10-31T10:21:22;16.42;;;9.43;;
54408;SDS011;40315;48.620;9.828;2022-10-31T10:24:00;14.38;;;7.60;;
54408;SDS011;40315;48.620;9.828;2022-10-31T10:26:39;14.18;;;7.57;;
54408;SDS011;40315;48.620;9.828;2022-10-31T10:29:17;16.63;;;7.55;;
54408;SDS011;40315;48.620;9.828;2022-10-31T10:31:53;14.00;;;7.85;;
54408;SDS011;40315;48.620;9.828;2022-10-31T10:34:24;16.08;;;8.52;;
54408;SDS011;40315;48.620;9.828;2022-10-31T10:37:00;14.82;;;8.27;;
54408;SDS011;40315;48.620;9.828;2022-10-31T10:39:29;13.50;;;8.32;;
54408;SDS011;40315;48.620;9.828;2022-10-31T10:42:01;15.02;;;8.60;;
54408;SDS011;40315;48.620;9.828;2022-10-31T10:44:54;17.30;;;8.55;;
54408;SDS011;40315;48.620;9.828;2022-10-31T10:47:39;19.70;;;8.68;;
54408;SDS011;40315;48.620;9.828;2022-10-31T10:50:10;16.63;;;8.38;;
54408;SDS011;40315;48.620;9.828;2022-10-31T10:52:44;14.52;;;8.25;;
54408;SDS011;40315;48.620;9.828;2022-10-31T10:55:24;15.18;;;7.63;;
54408;SDS011;40315;48.620;9.828;2022-10-31T10:58:00;16.95;;;7.95;;
54408;SDS011;40315;48.620;9.828;2022-10-31T11:00:29;14.52;;;7.68;;
54408;SDS011;40315;48.620;9.828;2022-10-31T11:02:58;13.10;;;7.00;;
54408;SDS011;40315;48.620;9.828;2022-10-31T11:05:28;14.32;;;7.30;;
54408;SDS011;40315;48.620;9.828;2022-10-31T11:08:02;14.63;;;7.80;;
54408;SDS011;40315;48.620;9.828;2022-10-31T11:10:30;14.07;;;6.88;;
54408;SDS011;40315;48.620;9.828;2022-10-31T11:13:03;10.57;;;6.43;;
54408;SDS011;40315;48.620;9.828;2022-10-31T11:15:49;12.43;;;7.25;;
54408;SDS011;40315;48.620;9.828;2022-10-31T11:18:22;15.82;;;7.80;;
54408;SDS011;40315;48.620;9.828;2022-10-31T11:20:51;12.23;;;6.90;;
54408;SDS011;40315;48.620;9.828;2022-10-31T11:23:24;15.82;;;7.53;;
54408;SDS011;40315;48.620;9.828;2022-10-31T11:25:53;12.27;;;6.95;;
54408;SDS011;40315;48.620;9.828;2022-10-31T11:28:22;17.73;;;7.78;;
54408;SDS011;40315;48.620;9.828;2022-10-31T11:30:51;14.48;;;7.65;;
54408;SDS011;40315;48.620;9.828;2022-10-31T11:33:21;14.95;;;7.63;;
54408;SDS011;40315;48.620;9.828;2022-10-31T11:35:52;12.00;;;6.18;;
54408;SDS011;40315;48.620;9.828;2022-10-31T11:38:24;15.82;;;8.23;;
54408;SDS011;40315;48.620;9.828;2022-10-31T11:40:59;11.77;;;7.90;;
54408;SDS011;40315;48.620;9.828;2022-10-31T11:43:35;15.38;;;6.97;;
54408;SDS011;40315;48.620;9.828;2022-10-31T11:46:08;15.05;;;8.15;;
54408;SDS011;40315;48.620;9.828;2022-10-31T11:48:39;10.18;;;6.60;;
54408;SDS011;40315;48.620;9.828;2022-10-31T11:51:19;13.95;;;7.55;;
54408;SDS011;40315;48.620;9.828;2022-10-31T11:53:51;13.48;;;7.43;;
54408;SDS011;40315;48.620;9.828;2022-10-31T11:56:19;13.40;;;7.68;;
54408;SDS011;40315;48.620;9.828;2022-10-31T11:58:54;13.05;;;7.60;;
54408;SDS011;40315;48.620;9.828;2022-10-31T12:01:23;16.88;;;6.90;;
54408;SDS011;40315;48.620;9.828;2022-10-31T12:03:54;13.40;;;7.18;;
54408;SDS011;40315;48.620;9.828;2022-10-31T12:06:29;11.20;;;6.13;;
54408;SDS011;40315;48.620;9.828;2022-10-31T12:09:04;10.38;;;5.95;;
54408;SDS011;40315;48.620;9.828;2022-10-31T12:11:47;16.60;;;7.28;;
54408;SDS011;40315;48.620;9.828;2022-10-31T12:14:35;11.85;;;7.15;;
54408;SDS011;40315;48.620;9.828;2022-10-31T12:17:18;12.27;;;6.22;;
54408;SDS011;40315;48.620;9.828;2022-10-31T12:19:52;13.93;;;6.97;;
54408;SDS011;40315;48.620;9.828;2022-10-31T12:22:29;14.98;;;6.80;;
54408;SDS011;40315;48.620;9.828;2022-10-31T12:25:08;13.20;;;6.18;;
54408;SDS011;40315;48.620;9.828;2022-10-31T12:27:56;9.85;;;5.65;;
54408;SDS011;40315;48.620;9.828;2022-10-31T12:30:31;13.70;;;6.60;;
54408;SDS011;40315;48.620;9.828;2022-10-31T12:33:14;11.13;;;6.03;;
54408;SDS011;40315;48.620;9.828;2022-10-31T12:35:51;14.02;;;6.70;;
54408;SDS011;40315;48.620;9.828;2022-10-31T12:38:40;13.68;;;6.85;;
54408;SDS011;40315;48.620;9.828;2022-10-31T12:41:27;13.63;;;6.65;;
54408;SDS011;40315;48.620;9.828;2022-10-31T12:44:05;11.38;;;5.72;;
54408;SDS011;40315;48.620;9.828;2022-10-31T12:49:39;12.88;;;6.30;;
54408;SDS011;40315;48.620;9.828;2022-10-31T12:52:17;10.18;;;6.35;;
54408;SDS011;40315;48.620;9.828;2022-10-31T12:55:03;12.07;;;5.70;;
54408;SDS011;40315;48.620;9.828;2022-10-31T12:57:42;13.88;;;6.32;;
54408;SDS011;40315;48.620;9.828;2022-10-31T13:00:13;13.93;;;7.22;;
54408;SDS011;40315;48.620;9.828;2022-10-31T13:02:43;12.27;;;7.20;;
54408;SDS011;40315;48.620;9.828;2022-10-31T13:05:19;13.20;;;6.35;;
54408;SDS011;40315;48.620;9.828;2022-10-31T13:07:53;11.88;;;6.20;;
54408;SDS011;40315;48.620;9.828;2022-10-31T13:10:24;11.05;;;6.65;;
54408;SDS011;40315;48.620;9.828;2022-10-31T13:12:59;14.07;;;7.88;;
54408;SDS011;40315;48.620;9.828;2022-10-31T13:15:35;11.02;;;6.40;;
54408;SDS011;40315;48.620;9.828;2022-10-31T13:18:15;12.93;;;6.97;;
54408;SDS011;40315;48.620;9.828;2022-10-31T13:20:49;10.10;;;5.95;;
54408;SDS011;40315;48.620;9.828;2022-10-31T13:23:19;14.63;;;7.03;;
54408;SDS011;40315;48.620;9.828;2022-10-31T13:25:49;13.95;;;6.90;;
54408;SDS011;40315;48.620;9.828;2022-10-31T13:28:24;18.33;;;7.10;;
54408;SDS011;40315;48.620;9.828;2022-10-31T13:30:59;12.93;;;7.32;;
54408;SDS011;40315;48.620;9.828;2022-10-31T13:33:27;16.77;;;7.97;;
54408;SDS011;40315;48.620;9.828;2022-10-31T13:36:04;16.98;;;8.10;;
54408;SDS011;40315;48.620;9.828;2022-10-31T13:38:40;14.68;;;7.60;;
54408;SDS011;40315;48.620;9.828;2022-10-31T13:44:07;17.00;;;7.93;;
54408;SDS011;40315;48.620;9.828;2022-10-31T13:46:40;16.00;;;7.95;;
54408;SDS011;40315;48.620;9.828;2022-10-31T13:49:25;13.35;;;8.20;;
54408;SDS011;40315;48.620;9.828;2022-10-31T13:52:11;12.98;;;7.78;;
54408;SDS011;40315;48.620;9.828;2022-10-31T13:54:43;16.92;;;9.20;;
54408;SDS011;40315;48.620;9.828;2022-10-31T13:57:16;13.93;;;8.02;;
54408;SDS011;40315;48.620;9.828;2022-10-31T13:59:49;16.98;;;8.80;;
54408;SDS011;40315;48.620;9.828;2022-10-31T14:02:19;14.88;;;9.30;;
54408;SDS011;40315;48.620;9.828;2022-10-31T14:04:55;17.92;;;9.07;;
54408;SDS011;40315;48.620;9.828;2022-10-31T14:07:27;12.38;;;9.15;;
54408;SDS011;40315;48.620;9.828;2022-10-31T14:10:02;17.52;;;9.25;;
54408;SDS011;40315;48.620;9.828;2022-10-31T14:12:33;13.18;;;8.23;;
54408;SDS011;40315;48.620;9.828;2022-10-31T14:15:17;14.23;;;9.00;;
54408;SDS011;40315;48.620;9.828;2022-10-31T14:17:46;12.18;;;7.47;;
54408;SDS011;40315;48.620;9.828;2022-10-31T14:20:24;13.25;;;7.70;;
54408;SDS011;40315;48.620;9.828;2022-10-31T14:23:13;16.35;;;8.88;;
54408;SDS011;40315;48.620;9.828;2022-10-31T14:26:06;12.68;;;7.90;;
54408;SDS011;40315;48.620;9.828;2022-10-31T14:28:46;17.48;;;8.32;;
54408;SDS011;40315;48.620;9.828;2022-10-31T14:31:27;14.38;;;8.80;;
54408;SDS011;40315;48.620;9.828;2022-10-31T14:33:58;17.27;;;9.35;;
54408;SDS011;40315;48.620;9.828;2022-10-31T14:36:29;13.68;;;8.45;;
54408;SDS011;40315;48.620;9.828;2022-10-31T14:39:08;14.38;;;8.95;;
54408;SDS011;40315;48.620;9.828;2022-10-31T14:41:53;14.23;;;7.78;;
54408;SDS011;40315;48.620;9.828;2022-10-31T14:44:43;17.25;;;8.10;;
54408;SDS011;40315;48.620;9.828;2022-10-31T14:47:27;14.77;;;7.80;;
54408;SDS011;40315;48.620;9.828;2022-10-31T14:50:17;11.68;;;7.90;;
54408;SDS011;40315;48.620;9.828;2022-10-31T14:52:53;15.63;;;8.15;;
54408;SDS011;40315;48.620;9.828;2022-10-31T14:55:22;11.75;;;7.07;;
54408;SDS011;40315;48.620;9.828;2022-10-31T14:57:51;15.27;;;8.55;;
54408;SDS011;40315;48.620;9.828;2022-10-31T15:00:21;17.75;;;8.85;;
54408;SDS011;40315;48.620;9.828;2022-10-31T15:03:00;15.43;;;8.50;;
54408;SDS011;40315;48.620;9.828;2022-10-31T15:05:35;13.85;;;8.25;;
54408;SDS011;40315;48.620;9.828;2022-10-31T15:08:13;16.73;;;8.23;;
54408;SDS011;40315;48.620;9.828;2022-10-31T15:10:52;16.98;;;8.73;;
54408;SDS011;40315;48.620;9.828;2022-10-31T15:13:20;15.50;;;8.73;;
54408;SDS011;40315;48.620;9.828;2022-10-31T15:15:48;15.32;;;9.60;;
54408;SDS011;40315;48.620;9.828;2022-10-31T15:18:22;15.13;;;9.45;;
54408;SDS011;40315;48.620;9.828;2022-10-31T15:20:53;15.15;;;9.15;;
54408;SDS011;40315;48.620;9.828;2022-10-31T15:23:25;15.05;;;9.02;;
54408;SDS011;40315;48.620;9.828;2022-10-31T15:25:59;16.40;;;9.88;;
54408;SDS011;40315;48.620;9.828;2022-10-31T15:28:27;12.55;;;9.13;;
54408;SDS011;40315;48.620;9.828;2022-10-31T15:30:56;14.52;;;9.15;;
54408;SDS011;40315;48.620;9.828;2022-10-31T15:33:27;13.73;;;9.13;;
54408;SDS011;40315;48.620;9.828;2022-10-31T15:35:58;18.70;;;10.07;;